sensor_id;sensor_type;location;lat;lon;timestamp;P1;durP1;ratioP1;P2;durP2;ratioP2
61344;SDS011;47216;42.656;23.232;2022-09-24T00:01:26;3.67;;;2.00;;
61344;SDS011;47216;42.656;23.232;2022-09-24T00:03:55;2.57;;;1.97;;
61344;SDS011;47216;42.656;23.232;2022-09-24T00:06:23;2.00;;;1.53;;
61344;SDS011;47216;42.656;23.232;2022-09-24T00:08:52;2.60;;;1.93;;
61344;SDS011;47216;42.656;23.232;2022-09-24T00:11:20;2.17;;;1.70;;
61344;SDS011;47216;42.656;23.232;2022-09-24T00:13:48;2.87;;;2.00;;
61344;SDS011;47216;42.656;23.232;2022-09-24T00:16:16;2.50;;;1.80;;
61344;SDS011;47216;42.656;23.232;2022-09-24T00:18:46;2.80;;;1.77;;
61344;SDS011;47216;42.656;23.232;2022-09-24T00:21:14;1.73;;;1.63;;
61344;SDS011;47216;42.656;23.232;2022-09-24T00:23:42;2.00;;;1.80;;
61344;SDS011;47216;42.656;23.232;2022-09-24T00:26:09;2.63;;;1.80;;
61344;SDS011;47216;42.656;23.232;2022-09-24T00:28:55;1.73;;;1.60;;
61344;SDS011;47216;42.656;23.232;2022-09-24T00:31:22;1.60;;;1.40;;
61344;SDS011;47216;42.656;23.232;2022-09-24T00:33:50;1.53;;;1.40;;
61344;SDS011;47216;42.656;23.232;2022-09-24T00:36:19;3.00;;;1.80;;
61344;SDS011;47216;42.656;23.232;2022-09-24T00:38:47;4.87;;;2.87;;
61344;SDS011;47216;42.656;23.232;2022-09-24T00:41:16;2.40;;;1.87;;
61344;SDS011;47216;42.656;23.232;2022-09-24T00:43:44;5.97;;;4.23;;
61344;SDS011;47216;42.656;23.232;2022-09-24T00:46:13;4.17;;;2.50;;
61344;SDS011;47216;42.656;23.232;2022-09-24T00:48:46;3.87;;;2.77;;
61344;SDS011;47216;42.656;23.232;2022-09-24T00:51:18;2.87;;;1.80;;
61344;SDS011;47216;42.656;23.232;2022-09-24T00:53:47;3.43;;;2.23;;
61344;SDS011;47216;42.656;23.232;2022-09-24T00:56:19;1.67;;;1.50;;
61344;SDS011;47216;42.656;23.232;2022-09-24T00:58:48;2.33;;;2.10;;
61344;SDS011;47216;42.656;23.232;2022-09-24T01:01:20;2.50;;;1.70;;
61344;SDS011;47216;42.656;23.232;2022-09-24T01:03:49;2.30;;;1.77;;
61344;SDS011;47216;42.656;23.232;2022-09-24T01:06:19;2.13;;;1.80;;
61344;SDS011;47216;42.656;23.232;2022-09-24T01:08:46;3.23;;;1.93;;
61344;SDS011;47216;42.656;23.232;2022-09-24T01:11:17;2.93;;;2.00;;
61344;SDS011;47216;42.656;23.232;2022-09-24T01:16:56;2.47;;;1.90;;
61344;SDS011;47216;42.656;23.232;2022-09-24T01:19:48;2.30;;;1.77;;
61344;SDS011;47216;42.656;23.232;2022-09-24T01:22:34;1.83;;;1.67;;
61344;SDS011;47216;42.656;23.232;2022-09-24T01:25:13;2.10;;;1.67;;
61344;SDS011;47216;42.656;23.232;2022-09-24T01:27:57;2.17;;;1.93;;
61344;SDS011;47216;42.656;23.232;2022-09-24T01:30:35;2.53;;;1.93;;
61344;SDS011;47216;42.656;23.232;2022-09-24T01:33:06;1.73;;;1.63;;
61344;SDS011;47216;42.656;23.232;2022-09-24T01:35:37;5.10;;;1.87;;
61344;SDS011;47216;42.656;23.232;2022-09-24T01:38:08;2.80;;;1.70;;
61344;SDS011;47216;42.656;23.232;2022-09-24T01:40:40;2.03;;;1.80;;
61344;SDS011;47216;42.656;23.232;2022-09-24T01:43:09;2.30;;;2.00;;
61344;SDS011;47216;42.656;23.232;2022-09-24T01:45:38;3.67;;;2.10;;
61344;SDS011;47216;42.656;23.232;2022-09-24T01:48:05;3.37;;;2.43;;
61344;SDS011;47216;42.656;23.232;2022-09-24T01:50:34;10.43;;;2.63;;
61344;SDS011;47216;42.656;23.232;2022-09-24T01:53:07;2.83;;;2.00;;
61344;SDS011;47216;42.656;23.232;2022-09-24T01:55:43;4.00;;;2.43;;
61344;SDS011;47216;42.656;23.232;2022-09-24T01:58:15;2.70;;;2.50;;
61344;SDS011;47216;42.656;23.232;2022-09-24T02:00:48;4.33;;;2.70;;
61344;SDS011;47216;42.656;23.232;2022-09-24T02:03:22;3.30;;;2.60;;
61344;SDS011;47216;42.656;23.232;2022-09-24T02:05:55;4.00;;;2.30;;
61344;SDS011;47216;42.656;23.232;2022-09-24T02:08:28;4.17;;;2.60;;
61344;SDS011;47216;42.656;23.232;2022-09-24T02:11:00;2.73;;;2.13;;
61344;SDS011;47216;42.656;23.232;2022-09-24T02:13:32;2.50;;;2.10;;
61344;SDS011;47216;42.656;23.232;2022-09-24T02:16:05;3.20;;;1.97;;
61344;SDS011;47216;42.656;23.232;2022-09-24T02:18:37;2.30;;;2.10;;
61344;SDS011;47216;42.656;23.232;2022-09-24T02:21:07;2.33;;;1.90;;
61344;SDS011;47216;42.656;23.232;2022-09-24T02:23:37;2.87;;;1.97;;
61344;SDS011;47216;42.656;23.232;2022-09-24T02:26:09;2.10;;;1.87;;
61344;SDS011;47216;42.656;23.232;2022-09-24T02:28:36;2.80;;;2.30;;
61344;SDS011;47216;42.656;23.232;2022-09-24T02:31:04;3.03;;;2.23;;
61344;SDS011;47216;42.656;23.232;2022-09-24T02:33:34;2.50;;;2.20;;
61344;SDS011;47216;42.656;23.232;2022-09-24T02:36:21;4.57;;;2.33;;
61344;SDS011;47216;42.656;23.232;2022-09-24T02:38:49;4.33;;;2.50;;
61344;SDS011;47216;42.656;23.232;2022-09-24T02:41:19;4.23;;;3.00;;
61344;SDS011;47216;42.656;23.232;2022-09-24T02:43:48;3.60;;;2.83;;
61344;SDS011;47216;42.656;23.232;2022-09-24T02:46:16;3.37;;;2.87;;
61344;SDS011;47216;42.656;23.232;2022-09-24T02:48:43;4.00;;;2.80;;
61344;SDS011;47216;42.656;23.232;2022-09-24T02:51:10;3.70;;;2.90;;
61344;SDS011;47216;42.656;23.232;2022-09-24T02:53:37;4.07;;;3.07;;
61344;SDS011;47216;42.656;23.232;2022-09-24T02:56:04;4.27;;;2.83;;
61344;SDS011;47216;42.656;23.232;2022-09-24T02:58:32;3.90;;;2.80;;
61344;SDS011;47216;42.656;23.232;2022-09-24T03:00:59;5.97;;;3.10;;
61344;SDS011;47216;42.656;23.232;2022-09-24T03:03:27;4.13;;;3.03;;
61344;SDS011;47216;42.656;23.232;2022-09-24T03:05:54;4.93;;;4.00;;
61344;SDS011;47216;42.656;23.232;2022-09-24T03:08:21;4.83;;;3.37;;
61344;SDS011;47216;42.656;23.232;2022-09-24T03:10:49;3.97;;;3.30;;
61344;SDS011;47216;42.656;23.232;2022-09-24T03:13:16;5.30;;;3.43;;
61344;SDS011;47216;42.656;23.232;2022-09-24T03:15:43;6.53;;;3.60;;
61344;SDS011;47216;42.656;23.232;2022-09-24T03:18:10;3.70;;;3.03;;
61344;SDS011;47216;42.656;23.232;2022-09-24T03:20:38;4.53;;;3.30;;
61344;SDS011;47216;42.656;23.232;2022-09-24T03:23:05;5.93;;;3.30;;
61344;SDS011;47216;42.656;23.232;2022-09-24T03:25:32;3.47;;;2.70;;
61344;SDS011;47216;42.656;23.232;2022-09-24T03:27:59;4.70;;;2.90;;
61344;SDS011;47216;42.656;23.232;2022-09-24T03:30:26;4.13;;;3.13;;
61344;SDS011;47216;42.656;23.232;2022-09-24T03:33:10;3.33;;;2.63;;
61344;SDS011;47216;42.656;23.232;2022-09-24T03:35:39;4.73;;;2.73;;
61344;SDS011;47216;42.656;23.232;2022-09-24T03:38:06;5.27;;;2.80;;
61344;SDS011;47216;42.656;23.232;2022-09-24T03:40:33;4.03;;;2.73;;
61344;SDS011;47216;42.656;23.232;2022-09-24T03:43:00;3.47;;;2.57;;
61344;SDS011;47216;42.656;23.232;2022-09-24T03:45:26;5.80;;;2.83;;
61344;SDS011;47216;42.656;23.232;2022-09-24T03:47:53;4.00;;;2.77;;
61344;SDS011;47216;42.656;23.232;2022-09-24T03:50:20;3.73;;;2.90;;
61344;SDS011;47216;42.656;23.232;2022-09-24T03:52:48;4.37;;;2.53;;
61344;SDS011;47216;42.656;23.232;2022-09-24T03:55:15;4.00;;;2.40;;
61344;SDS011;47216;42.656;23.232;2022-09-24T03:57:42;3.30;;;2.60;;
61344;SDS011;47216;42.656;23.232;2022-09-24T04:00:09;2.47;;;2.13;;
61344;SDS011;47216;42.656;23.232;2022-09-24T04:02:37;3.23;;;2.60;;
61344;SDS011;47216;42.656;23.232;2022-09-24T04:05:05;3.40;;;2.67;;
61344;SDS011;47216;42.656;23.232;2022-09-24T04:07:32;2.47;;;2.17;;
61344;SDS011;47216;42.656;23.232;2022-09-24T04:10:00;3.20;;;2.47;;
61344;SDS011;47216;42.656;23.232;2022-09-24T04:12:27;5.30;;;2.83;;
61344;SDS011;47216;42.656;23.232;2022-09-24T04:14:55;4.43;;;2.93;;
61344;SDS011;47216;42.656;23.232;2022-09-24T04:17:22;3.93;;;2.70;;
61344;SDS011;47216;42.656;23.232;2022-09-24T04:19:48;3.57;;;2.83;;
61344;SDS011;47216;42.656;23.232;2022-09-24T04:22:18;3.77;;;3.10;;
61344;SDS011;47216;42.656;23.232;2022-09-24T04:24:44;4.33;;;3.20;;
61344;SDS011;47216;42.656;23.232;2022-09-24T04:27:13;5.13;;;3.23;;
61344;SDS011;47216;42.656;23.232;2022-09-24T04:29:39;3.93;;;3.10;;
61344;SDS011;47216;42.656;23.232;2022-09-24T04:32:06;5.17;;;3.60;;
61344;SDS011;47216;42.656;23.232;2022-09-24T04:34:33;10.03;;;5.53;;
61344;SDS011;47216;42.656;23.232;2022-09-24T04:37:00;15.10;;;7.47;;
61344;SDS011;47216;42.656;23.232;2022-09-24T04:39:26;5.07;;;4.13;;
61344;SDS011;47216;42.656;23.232;2022-09-24T04:41:53;6.03;;;4.37;;
61344;SDS011;47216;42.656;23.232;2022-09-24T04:44:21;4.17;;;3.70;;
61344;SDS011;47216;42.656;23.232;2022-09-24T04:46:48;4.50;;;3.03;;
61344;SDS011;47216;42.656;23.232;2022-09-24T04:49:16;7.23;;;3.20;;
61344;SDS011;47216;42.656;23.232;2022-09-24T04:51:42;4.53;;;3.50;;
61344;SDS011;47216;42.656;23.232;2022-09-24T04:54:09;5.43;;;3.40;;
61344;SDS011;47216;42.656;23.232;2022-09-24T04:56:36;5.20;;;3.50;;
61344;SDS011;47216;42.656;23.232;2022-09-24T04:59:03;9.63;;;3.80;;
61344;SDS011;47216;42.656;23.232;2022-09-24T05:01:32;5.23;;;3.70;;
61344;SDS011;47216;42.656;23.232;2022-09-24T05:03:59;6.00;;;3.40;;
61344;SDS011;47216;42.656;23.232;2022-09-24T05:06:26;6.33;;;3.90;;
61344;SDS011;47216;42.656;23.232;2022-09-24T05:08:53;6.30;;;3.90;;
61344;SDS011;47216;42.656;23.232;2022-09-24T05:11:20;6.10;;;4.23;;
61344;SDS011;47216;42.656;23.232;2022-09-24T05:13:47;6.60;;;4.43;;
61344;SDS011;47216;42.656;23.232;2022-09-24T05:16:13;6.80;;;4.07;;
61344;SDS011;47216;42.656;23.232;2022-09-24T05:18:42;9.93;;;4.00;;
61344;SDS011;47216;42.656;23.232;2022-09-24T05:21:08;11.07;;;4.40;;
61344;SDS011;47216;42.656;23.232;2022-09-24T05:23:35;6.93;;;5.00;;
61344;SDS011;47216;42.656;23.232;2022-09-24T05:26:02;11.07;;;6.00;;
61344;SDS011;47216;42.656;23.232;2022-09-24T05:28:46;19.93;;;8.93;;
61344;SDS011;47216;42.656;23.232;2022-09-24T05:31:13;9.30;;;5.13;;
61344;SDS011;47216;42.656;23.232;2022-09-24T05:33:39;7.30;;;5.13;;
61344;SDS011;47216;42.656;23.232;2022-09-24T05:36:08;16.40;;;8.67;;
61344;SDS011;47216;42.656;23.232;2022-09-24T05:38:34;17.70;;;7.90;;
61344;SDS011;47216;42.656;23.232;2022-09-24T05:41:01;18.33;;;7.20;;
61344;SDS011;47216;42.656;23.232;2022-09-24T05:43:28;9.87;;;5.17;;
61344;SDS011;47216;42.656;23.232;2022-09-24T05:45:55;6.27;;;4.40;;
61344;SDS011;47216;42.656;23.232;2022-09-24T05:48:22;6.33;;;4.67;;
61344;SDS011;47216;42.656;23.232;2022-09-24T05:50:50;7.10;;;4.53;;
61344;SDS011;47216;42.656;23.232;2022-09-24T05:53:20;6.30;;;4.53;;
61344;SDS011;47216;42.656;23.232;2022-09-24T05:55:48;8.93;;;5.20;;
61344;SDS011;47216;42.656;23.232;2022-09-24T05:58:14;7.20;;;4.40;;
61344;SDS011;47216;42.656;23.232;2022-09-24T06:00:42;6.33;;;4.87;;
61344;SDS011;47216;42.656;23.232;2022-09-24T06:03:10;5.37;;;4.63;;
61344;SDS011;47216;42.656;23.232;2022-09-24T06:05:41;6.53;;;4.10;;
61344;SDS011;47216;42.656;23.232;2022-09-24T06:08:09;5.50;;;4.33;;
61344;SDS011;47216;42.656;23.232;2022-09-24T06:10:37;5.47;;;4.47;;
61344;SDS011;47216;42.656;23.232;2022-09-24T06:13:04;5.43;;;4.37;;
61344;SDS011;47216;42.656;23.232;2022-09-24T06:15:30;7.17;;;4.70;;
61344;SDS011;47216;42.656;23.232;2022-09-24T06:17:59;4.33;;;3.77;;
61344;SDS011;47216;42.656;23.232;2022-09-24T06:20:25;8.37;;;4.63;;
61344;SDS011;47216;42.656;23.232;2022-09-24T06:22:53;5.90;;;4.30;;
61344;SDS011;47216;42.656;23.232;2022-09-24T06:25:21;7.63;;;4.13;;
61344;SDS011;47216;42.656;23.232;2022-09-24T06:27:53;7.63;;;5.20;;
61344;SDS011;47216;42.656;23.232;2022-09-24T06:30:24;9.50;;;5.67;;
61344;SDS011;47216;42.656;23.232;2022-09-24T06:32:52;5.73;;;5.03;;
61344;SDS011;47216;42.656;23.232;2022-09-24T06:35:19;7.27;;;4.93;;
61344;SDS011;47216;42.656;23.232;2022-09-24T06:37:46;8.87;;;5.80;;
61344;SDS011;47216;42.656;23.232;2022-09-24T06:40:13;8.33;;;5.53;;
61344;SDS011;47216;42.656;23.232;2022-09-24T06:42:40;9.30;;;5.73;;
61344;SDS011;47216;42.656;23.232;2022-09-24T06:45:09;7.23;;;5.50;;
61344;SDS011;47216;42.656;23.232;2022-09-24T06:47:37;9.27;;;4.77;;
61344;SDS011;47216;42.656;23.232;2022-09-24T06:50:04;10.87;;;5.10;;
61344;SDS011;47216;42.656;23.232;2022-09-24T06:52:33;8.70;;;5.40;;
61344;SDS011;47216;42.656;23.232;2022-09-24T06:54:59;6.10;;;5.00;;
61344;SDS011;47216;42.656;23.232;2022-09-24T06:57:26;15.23;;;5.30;;
61344;SDS011;47216;42.656;23.232;2022-09-24T06:59:53;7.37;;;5.33;;
61344;SDS011;47216;42.656;23.232;2022-09-24T07:02:21;6.87;;;5.40;;
61344;SDS011;47216;42.656;23.232;2022-09-24T07:04:48;6.77;;;5.27;;
61344;SDS011;47216;42.656;23.232;2022-09-24T07:07:15;7.80;;;5.23;;
61344;SDS011;47216;42.656;23.232;2022-09-24T07:09:57;6.57;;;5.37;;
61344;SDS011;47216;42.656;23.232;2022-09-24T07:12:25;8.40;;;4.90;;
61344;SDS011;47216;42.656;23.232;2022-09-24T07:14:53;6.13;;;4.70;;
61344;SDS011;47216;42.656;23.232;2022-09-24T07:17:22;11.77;;;4.70;;
61344;SDS011;47216;42.656;23.232;2022-09-24T07:19:49;10.13;;;4.63;;
61344;SDS011;47216;42.656;23.232;2022-09-24T07:22:16;7.03;;;5.17;;
61344;SDS011;47216;42.656;23.232;2022-09-24T07:24:42;7.50;;;5.17;;
61344;SDS011;47216;42.656;23.232;2022-09-24T07:27:09;9.50;;;4.90;;
61344;SDS011;47216;42.656;23.232;2022-09-24T07:29:37;11.13;;;5.40;;
61344;SDS011;47216;42.656;23.232;2022-09-24T07:32:04;8.30;;;5.13;;
61344;SDS011;47216;42.656;23.232;2022-09-24T07:34:32;10.30;;;5.47;;
61344;SDS011;47216;42.656;23.232;2022-09-24T07:36:59;8.40;;;4.83;;
61344;SDS011;47216;42.656;23.232;2022-09-24T07:39:26;10.83;;;5.03;;
61344;SDS011;47216;42.656;23.232;2022-09-24T07:41:52;7.77;;;4.80;;
61344;SDS011;47216;42.656;23.232;2022-09-24T07:44:20;7.60;;;4.93;;
61344;SDS011;47216;42.656;23.232;2022-09-24T07:46:48;6.77;;;5.03;;
61344;SDS011;47216;42.656;23.232;2022-09-24T07:49:15;7.20;;;5.40;;
61344;SDS011;47216;42.656;23.232;2022-09-24T07:51:43;6.63;;;5.33;;
61344;SDS011;47216;42.656;23.232;2022-09-24T07:54:10;6.27;;;5.03;;
61344;SDS011;47216;42.656;23.232;2022-09-24T07:56:37;6.20;;;4.93;;
61344;SDS011;47216;42.656;23.232;2022-09-24T07:59:04;8.47;;;5.23;;
61344;SDS011;47216;42.656;23.232;2022-09-24T08:01:32;8.50;;;5.20;;
61344;SDS011;47216;42.656;23.232;2022-09-24T08:03:59;6.73;;;5.47;;
61344;SDS011;47216;42.656;23.232;2022-09-24T08:06:28;6.53;;;4.90;;
61344;SDS011;47216;42.656;23.232;2022-09-24T08:08:58;10.63;;;5.67;;
61344;SDS011;47216;42.656;23.232;2022-09-24T08:11:26;8.13;;;5.43;;
61344;SDS011;47216;42.656;23.232;2022-09-24T08:13:54;8.13;;;5.30;;
61344;SDS011;47216;42.656;23.232;2022-09-24T08:16:21;10.27;;;5.57;;
61344;SDS011;47216;42.656;23.232;2022-09-24T08:18:50;9.30;;;5.53;;
61344;SDS011;47216;42.656;23.232;2022-09-24T08:21:16;6.83;;;5.73;;
61344;SDS011;47216;42.656;23.232;2022-09-24T08:23:43;7.17;;;5.50;;
61344;SDS011;47216;42.656;23.232;2022-09-24T08:26:12;7.43;;;5.40;;
61344;SDS011;47216;42.656;23.232;2022-09-24T08:28:39;8.13;;;6.00;;
61344;SDS011;47216;42.656;23.232;2022-09-24T08:31:07;7.13;;;5.60;;
61344;SDS011;47216;42.656;23.232;2022-09-24T08:33:36;7.43;;;5.50;;
61344;SDS011;47216;42.656;23.232;2022-09-24T08:36:04;7.97;;;5.60;;
61344;SDS011;47216;42.656;23.232;2022-09-24T08:38:33;9.43;;;6.00;;
61344;SDS011;47216;42.656;23.232;2022-09-24T08:41:02;8.20;;;5.67;;
61344;SDS011;47216;42.656;23.232;2022-09-24T08:43:43;10.10;;;5.63;;
61344;SDS011;47216;42.656;23.232;2022-09-24T08:46:18;9.63;;;5.57;;
61344;SDS011;47216;42.656;23.232;2022-09-24T08:49:06;7.07;;;4.53;;
61344;SDS011;47216;42.656;23.232;2022-09-24T08:51:38;2.00;;;1.80;;
61344;SDS011;47216;42.656;23.232;2022-09-24T08:54:12;3.40;;;2.00;;
61344;SDS011;47216;42.656;23.232;2022-09-24T08:56:41;2.70;;;1.90;;
61344;SDS011;47216;42.656;23.232;2022-09-24T08:59:16;2.20;;;1.67;;
61344;SDS011;47216;42.656;23.232;2022-09-24T09:01:50;1.63;;;1.53;;
61344;SDS011;47216;42.656;23.232;2022-09-24T09:04:24;2.53;;;1.43;;
61344;SDS011;47216;42.656;23.232;2022-09-24T09:06:58;4.13;;;1.40;;
61344;SDS011;47216;42.656;23.232;2022-09-24T09:09:37;1.90;;;1.80;;
61344;SDS011;47216;42.656;23.232;2022-09-24T09:12:13;1.50;;;1.37;;
61344;SDS011;47216;42.656;23.232;2022-09-24T09:14:47;5.37;;;1.90;;
61344;SDS011;47216;42.656;23.232;2022-09-24T09:17:25;2.47;;;1.73;;
61344;SDS011;47216;42.656;23.232;2022-09-24T09:19:58;1.70;;;1.60;;
61344;SDS011;47216;42.656;23.232;2022-09-24T09:22:29;2.00;;;1.70;;
61344;SDS011;47216;42.656;23.232;2022-09-24T09:25:02;3.57;;;1.80;;
61344;SDS011;47216;42.656;23.232;2022-09-24T09:27:38;1.90;;;1.57;;
61344;SDS011;47216;42.656;23.232;2022-09-24T09:30:11;2.77;;;1.77;;
61344;SDS011;47216;42.656;23.232;2022-09-24T09:32:43;2.50;;;1.40;;
61344;SDS011;47216;42.656;23.232;2022-09-24T09:35:26;3.27;;;1.67;;
61344;SDS011;47216;42.656;23.232;2022-09-24T09:37:58;1.63;;;1.47;;
61344;SDS011;47216;42.656;23.232;2022-09-24T09:40:37;1.77;;;1.53;;
61344;SDS011;47216;42.656;23.232;2022-09-24T09:43:11;1.60;;;1.50;;
61344;SDS011;47216;42.656;23.232;2022-09-24T09:45:43;2.37;;;1.60;;
61344;SDS011;47216;42.656;23.232;2022-09-24T09:48:24;2.67;;;1.70;;
61344;SDS011;47216;42.656;23.232;2022-09-24T09:50:57;1.80;;;1.43;;
61344;SDS011;47216;42.656;23.232;2022-09-24T09:53:29;2.00;;;1.47;;
61344;SDS011;47216;42.656;23.232;2022-09-24T09:55:56;2.27;;;1.47;;
61344;SDS011;47216;42.656;23.232;2022-09-24T09:58:26;2.77;;;1.80;;
61344;SDS011;47216;42.656;23.232;2022-09-24T10:01:03;1.73;;;1.63;;
61344;SDS011;47216;42.656;23.232;2022-09-24T10:03:32;5.33;;;1.80;;
61344;SDS011;47216;42.656;23.232;2022-09-24T10:06:13;2.23;;;1.50;;
61344;SDS011;47216;42.656;23.232;2022-09-24T10:08:49;6.23;;;1.90;;
61344;SDS011;47216;42.656;23.232;2022-09-24T10:11:16;2.17;;;1.70;;
61344;SDS011;47216;42.656;23.232;2022-09-24T10:13:44;2.17;;;1.50;;
61344;SDS011;47216;42.656;23.232;2022-09-24T10:16:12;1.93;;;1.73;;
61344;SDS011;47216;42.656;23.232;2022-09-24T10:18:41;6.00;;;1.70;;
61344;SDS011;47216;42.656;23.232;2022-09-24T10:21:12;1.97;;;1.70;;
61344;SDS011;47216;42.656;23.232;2022-09-24T10:23:50;2.43;;;1.70;;
61344;SDS011;47216;42.656;23.232;2022-09-24T10:26:17;1.60;;;1.50;;
61344;SDS011;47216;42.656;23.232;2022-09-24T10:28:45;2.03;;;1.50;;
61344;SDS011;47216;42.656;23.232;2022-09-24T10:31:33;1.60;;;1.50;;
61344;SDS011;47216;42.656;23.232;2022-09-24T10:34:03;2.90;;;1.40;;
61344;SDS011;47216;42.656;23.232;2022-09-24T10:36:48;2.57;;;1.33;;
61344;SDS011;47216;42.656;23.232;2022-09-24T10:39:16;2.57;;;1.70;;
61344;SDS011;47216;42.656;23.232;2022-09-24T10:41:44;2.17;;;1.60;;
61344;SDS011;47216;42.656;23.232;2022-09-24T10:44:12;3.10;;;1.90;;
61344;SDS011;47216;42.656;23.232;2022-09-24T10:49:50;1.50;;;1.40;;
61344;SDS011;47216;42.656;23.232;2022-09-24T10:52:32;1.80;;;1.60;;
61344;SDS011;47216;42.656;23.232;2022-09-24T10:55:12;1.60;;;1.50;;
61344;SDS011;47216;42.656;23.232;2022-09-24T10:57:48;2.30;;;1.63;;
61344;SDS011;47216;42.656;23.232;2022-09-24T11:00:23;2.73;;;1.83;;
61344;SDS011;47216;42.656;23.232;2022-09-24T11:03:02;1.90;;;1.50;;
61344;SDS011;47216;42.656;23.232;2022-09-24T11:05:54;2.10;;;1.60;;
61344;SDS011;47216;42.656;23.232;2022-09-24T11:08:33;2.10;;;1.60;;
61344;SDS011;47216;42.656;23.232;2022-09-24T11:11:13;2.33;;;1.60;;
61344;SDS011;47216;42.656;23.232;2022-09-24T11:13:54;3.00;;;1.90;;
61344;SDS011;47216;42.656;23.232;2022-09-24T11:16:40;2.40;;;1.70;;
61344;SDS011;47216;42.656;23.232;2022-09-24T11:19:21;3.37;;;1.80;;
61344;SDS011;47216;42.656;23.232;2022-09-24T11:22:07;3.37;;;1.60;;
61344;SDS011;47216;42.656;23.232;2022-09-24T11:24:41;1.83;;;1.60;;
61344;SDS011;47216;42.656;23.232;2022-09-24T11:27:29;2.83;;;1.67;;
61344;SDS011;47216;42.656;23.232;2022-09-24T11:30:08;1.80;;;1.50;;
61344;SDS011;47216;42.656;23.232;2022-09-24T11:32:40;2.27;;;1.80;;
61344;SDS011;47216;42.656;23.232;2022-09-24T11:35:20;1.80;;;1.60;;
61344;SDS011;47216;42.656;23.232;2022-09-24T11:38:04;3.20;;;1.60;;
61344;SDS011;47216;42.656;23.232;2022-09-24T11:43:40;6.43;;;3.57;;
61344;SDS011;47216;42.656;23.232;2022-09-24T11:46:38;2.17;;;1.90;;
61344;SDS011;47216;42.656;23.232;2022-09-24T11:49:16;2.83;;;1.70;;
61344;SDS011;47216;42.656;23.232;2022-09-24T11:51:56;3.23;;;2.00;;
61344;SDS011;47216;42.656;23.232;2022-09-24T11:54:29;2.30;;;1.60;;
61344;SDS011;47216;42.656;23.232;2022-09-24T11:57:01;2.00;;;1.70;;
61344;SDS011;47216;42.656;23.232;2022-09-24T11:59:37;2.83;;;1.80;;
61344;SDS011;47216;42.656;23.232;2022-09-24T12:02:12;1.63;;;1.53;;
61344;SDS011;47216;42.656;23.232;2022-09-24T12:04:46;1.83;;;1.70;;
61344;SDS011;47216;42.656;23.232;2022-09-24T12:07:22;2.17;;;1.87;;
61344;SDS011;47216;42.656;23.232;2022-09-24T12:09:54;2.57;;;1.90;;
61344;SDS011;47216;42.656;23.232;2022-09-24T12:12:25;4.63;;;1.67;;
61344;SDS011;47216;42.656;23.232;2022-09-24T12:14:58;3.83;;;1.70;;
61344;SDS011;47216;42.656;23.232;2022-09-24T12:17:29;1.70;;;1.60;;
61344;SDS011;47216;42.656;23.232;2022-09-24T12:20:02;2.63;;;2.00;;
61344;SDS011;47216;42.656;23.232;2022-09-24T12:22:36;5.10;;;1.70;;
61344;SDS011;47216;42.656;23.232;2022-09-24T12:25:09;1.83;;;1.50;;
61344;SDS011;47216;42.656;23.232;2022-09-24T12:27:37;2.30;;;1.57;;
61344;SDS011;47216;42.656;23.232;2022-09-24T12:30:05;2.50;;;1.53;;
61344;SDS011;47216;42.656;23.232;2022-09-24T12:33:05;1.87;;;1.63;;
61344;SDS011;47216;42.656;23.232;2022-09-24T12:35:42;2.37;;;1.50;;
61344;SDS011;47216;42.656;23.232;2022-09-24T12:38:22;2.73;;;1.67;;
61344;SDS011;47216;42.656;23.232;2022-09-24T12:43:49;3.37;;;1.60;;
61344;SDS011;47216;42.656;23.232;2022-09-24T12:46:21;2.37;;;1.80;;
61344;SDS011;47216;42.656;23.232;2022-09-24T12:48:51;1.70;;;1.60;;
61344;SDS011;47216;42.656;23.232;2022-09-24T12:51:20;1.93;;;1.77;;
61344;SDS011;47216;42.656;23.232;2022-09-24T12:53:56;2.03;;;1.63;;
61344;SDS011;47216;42.656;23.232;2022-09-24T12:56:26;2.13;;;1.60;;
61344;SDS011;47216;42.656;23.232;2022-09-24T12:58:55;1.70;;;1.40;;
61344;SDS011;47216;42.656;23.232;2022-09-24T13:01:27;2.47;;;1.97;;
61344;SDS011;47216;42.656;23.232;2022-09-24T13:06:50;2.30;;;1.80;;
61344;SDS011;47216;42.656;23.232;2022-09-24T13:12:17;1.70;;;1.60;;
61344;SDS011;47216;42.656;23.232;2022-09-24T13:14:50;1.80;;;1.50;;
61344;SDS011;47216;42.656;23.232;2022-09-24T13:17:21;2.00;;;1.80;;
61344;SDS011;47216;42.656;23.232;2022-09-24T13:19:49;2.50;;;1.90;;
61344;SDS011;47216;42.656;23.232;2022-09-24T13:22:24;1.80;;;1.67;;
61344;SDS011;47216;42.656;23.232;2022-09-24T13:25:04;3.17;;;1.53;;
61344;SDS011;47216;42.656;23.232;2022-09-24T13:27:53;2.13;;;1.93;;
61344;SDS011;47216;42.656;23.232;2022-09-24T13:30:25;3.87;;;3.53;;
61344;SDS011;47216;42.656;23.232;2022-09-24T13:33:01;2.57;;;1.67;;
61344;SDS011;47216;42.656;23.232;2022-09-24T13:35:40;2.20;;;2.10;;
61344;SDS011;47216;42.656;23.232;2022-09-24T13:38:14;3.90;;;3.30;;
61344;SDS011;47216;42.656;23.232;2022-09-24T13:40:50;2.10;;;1.90;;
61344;SDS011;47216;42.656;23.232;2022-09-24T13:43:28;2.50;;;1.73;;
61344;SDS011;47216;42.656;23.232;2022-09-24T13:46:04;3.50;;;1.73;;
61344;SDS011;47216;42.656;23.232;2022-09-24T13:48:37;1.70;;;1.60;;
61344;SDS011;47216;42.656;23.232;2022-09-24T13:51:10;1.70;;;1.60;;
61344;SDS011;47216;42.656;23.232;2022-09-24T13:53:40;1.60;;;1.43;;
61344;SDS011;47216;42.656;23.232;2022-09-24T13:56:14;4.07;;;2.10;;
61344;SDS011;47216;42.656;23.232;2022-09-24T13:58:43;4.67;;;3.67;;
61344;SDS011;47216;42.656;23.232;2022-09-24T14:01:11;2.00;;;1.63;;
61344;SDS011;47216;42.656;23.232;2022-09-24T14:03:41;3.87;;;2.20;;
61344;SDS011;47216;42.656;23.232;2022-09-24T14:06:17;2.97;;;2.00;;
61344;SDS011;47216;42.656;23.232;2022-09-24T14:08:48;1.80;;;1.60;;
61344;SDS011;47216;42.656;23.232;2022-09-24T14:11:18;3.17;;;2.90;;
61344;SDS011;47216;42.656;23.232;2022-09-24T14:13:45;2.60;;;1.60;;
61344;SDS011;47216;42.656;23.232;2022-09-24T14:16:13;2.80;;;1.73;;
61344;SDS011;47216;42.656;23.232;2022-09-24T14:18:42;2.00;;;1.80;;
61344;SDS011;47216;42.656;23.232;2022-09-24T14:21:09;4.10;;;1.70;;
61344;SDS011;47216;42.656;23.232;2022-09-24T14:23:40;2.97;;;1.70;;
61344;SDS011;47216;42.656;23.232;2022-09-24T14:26:12;5.63;;;1.67;;
61344;SDS011;47216;42.656;23.232;2022-09-24T14:28:49;2.90;;;1.83;;
61344;SDS011;47216;42.656;23.232;2022-09-24T14:31:17;2.20;;;1.87;;
61344;SDS011;47216;42.656;23.232;2022-09-24T14:33:44;2.10;;;1.90;;
61344;SDS011;47216;42.656;23.232;2022-09-24T14:36:11;2.70;;;1.73;;
61344;SDS011;47216;42.656;23.232;2022-09-24T14:38:50;2.00;;;1.80;;
61344;SDS011;47216;42.656;23.232;2022-09-24T14:41:24;1.97;;;1.60;;
61344;SDS011;47216;42.656;23.232;2022-09-24T14:43:55;1.60;;;1.50;;
61344;SDS011;47216;42.656;23.232;2022-09-24T14:46:25;3.00;;;1.90;;
61344;SDS011;47216;42.656;23.232;2022-09-24T14:49:05;3.47;;;1.93;;
61344;SDS011;47216;42.656;23.232;2022-09-24T14:51:49;1.67;;;1.53;;
61344;SDS011;47216;42.656;23.232;2022-09-24T14:54:18;1.77;;;1.57;;
61344;SDS011;47216;42.656;23.232;2022-09-24T14:56:54;4.17;;;2.00;;
61344;SDS011;47216;42.656;23.232;2022-09-24T14:59:26;2.33;;;1.77;;
61344;SDS011;47216;42.656;23.232;2022-09-24T15:02:01;5.03;;;2.10;;
61344;SDS011;47216;42.656;23.232;2022-09-24T15:04:31;2.17;;;1.80;;
61344;SDS011;47216;42.656;23.232;2022-09-24T15:06:57;3.23;;;1.67;;
61344;SDS011;47216;42.656;23.232;2022-09-24T15:09:25;3.10;;;1.80;;
61344;SDS011;47216;42.656;23.232;2022-09-24T15:12:04;3.97;;;3.17;;
61344;SDS011;47216;42.656;23.232;2022-09-24T15:14:32;4.80;;;4.40;;